KEWN/EWN METAR and TAF weather

Enter ICAO airport designator
Station Type Date Time Source
KEWN METAR 2020/04/09 19:54 UTC NOAA

KEWN 091954Z 29018G24KT 10SM CLR 27/14 A2946 RMK AO2 PK WND 26027/1938 SLP975 T02670144


Station Type Date Time Source
KEWN Decoded METAR 2020/04/09 19:54 UTC NOAA

New Bern, Craven County Regional Airport, NC, United States (KEWN) 35-04-03N 077-02-50W 3M
Apr 09, 2020 - 03:54 PM EDT / 2020.04.09 1954 UTC
Wind: from the WNW (290 degrees) at 21 MPH (18 KT) gusting to 28 MPH (24 KT):0
Visibility: 10 mile(s):0
Sky conditions: clear
Temperature: 80.1 F (26.7 C)
Dew Point: 57.9 F (14.4 C)
Relative Humidity: 46%
Pressure (altimeter): 29.46 in. Hg (997 hPa)
ob: KEWN 091954Z 29018G24KT 10SM CLR 27/14 A2946 RMK AO2 PK WND 26027/1938 SLP975 T02670144
cycle: 20

Station Type Date Time Source
KEWN TAF 2020/04/09 18:22 UTC NOAA

TAF KEWN 091720Z 0918/1018 26012G23KT P6SM SKC
FM100000 29011G17KT P6SM SKC
FM100700 31007KT P6SM FEW250
FM101100 31008G13KT P6SM SCT250

Example: see airport list